Monarch, Montana
Current Conditions -  °F | °C
As of 3:56 AM on Friday 24 Oct 2014 (Local Time) from KGFA Reporting Station
Clear Clear  
Wind Chill:   Ceiling: Unl
Heat Index:   Visibility: 10mi
Dew Point:   Wind: 17mph
Humidity: 63%   Direction: 230°SW
Pressure: 29.93"   Gusts: NA
Location:  47.1°N, 110.83°W
Report Text: KGFA 240956Z AUTO 23015KT 10SM CLR 09/02 A2993 RMK AO2 SLP139 T00920024
Loading
Personal Weather Stations






























Interactive Weather Map
Tropical Storm Tracking
New forecast layout! Learn more

10-Day Weather Forecast

Advertisements
Track Severe Weather on mobile